< < Back
Terminal Aerodrome Forecast


Current Version              Previous Versions:   1  2  3  4  5  6  7  8  9  

Terminal Aerodrome Forecast

268
FTUS42 KGSP 190903 AAA
TAFCLT
TAF AMD
KCLT 190903Z 1909/2006 05005KT P6SM FEW060 SCT250
     FM200100 07003KT P6SM SCT070 BKN250=



Latest METAR

795
SAUS70 KWBC 191000
MTRCLT
METAR KCLT 190952Z 36005KT 10SM CLR 02/M04 A3010 RMK AO2 SLP193
T00171044


USA.gov is the U.S. government's official web portal to all federal, state and local government web resources and services.